Date,TemperatureHighF,TemperatureAvgF,TemperatureLowF,DewpointHighF,DewpointAvgF,DewpointLowF,HumidityHigh,HumidityAvg,HumidityLow,PressureMaxIn,PressureMinIn,WindSpeedMaxMPH,WindSpeedAvgMPH,GustSpeedMaxMPH,PrecipitationSumIn
2013-1-1,33,24,15,28,17,10,83,73,54,30.07,29.90,4,1,10,0.00
2013-1-2,29,22,14,19,15,11,87,75,66,30.23,30.04,4,2,10,0.00
2013-1-3,31,24,14,28,20,11,91,85,77,30.22,30.00,6,2,16,0.00
2013-1-4,32,29,27,26,24,21,85,79,76,30.10,29.98,11,4,16,0.00
2013-1-5,37,31,29,29,26,23,86,80,70,30.31,30.06,5,2,13,0.00
2013-1-6,36,34,32,33,32,26,93,89,75,30.07,29.91,5,3,15,0.19
2013-1-8,31,28,27,27,25,24,95,88,77,30.32,30.28,1,0,3,0.00
2013-1-9,39,35,27,34,29,22,87,80,70,30.39,30.16,6,2,11,0.00
2013-1-10,43,36,31,30,28,26,86,73,57,30.62,30.39,3,0,5,0.00
2013-1-11,51,43,33,47,38,27,88,83,71,30.39,29.85,7,2,17,0.11
2013-1-12,59,53,48,51,48,45,90,84,73,29.99,29.93,6,3,16,0.00
2013-1-13,64,53,44,57,50,43,96,88,74,29.94,29.73,8,3,20,0.45
2013-1-14,44,33,27,43,27,19,96,78,65,30.42,29.75,5,2,13,0.07
2013-1-15,32,28,25,22,21,19,84,75,64,30.44,30.18,3,0,6,0.00
2013-1-16,38,32,28,31,26,20,82,75,66,30.19,29.81,6,2,18,0.00
2013-1-17,35,26,15,29,20,12,90,78,72,30.20,29.88,6,3,12,0.00
2013-1-18,34,22,14,21,14,9,91,72,58,30.48,30.05,8,3,17,0.00
2013-1-19,47,42,33,33,28,20,67,58,48,30.05,29.57,9,4,22,0.00
2013-1-20,47,30,18,35,19,9,83,63,48,30.12,29.48,11,5,28,0.00
2013-1-21,21,17,11,16,9,0,88,70,56,30.10,29.90,4,1,9,0.00
2013-1-22,12,8,5,0,-3,-5,67,60,52,30.24,29.95,7,4,13,0.00
2013-1-23,16,10,4,7,0,-3,78,63,46,30.28,30.14,3,1,7,0.00
2013-1-24,13,11,8,10,7,3,90,82,66,30.27,30.13,1,0,3,0.00
2013-1-26,20,20,18,16,15,14,84,81,78,30.44,30.38,2,0,4,0.00
2013-1-27,31,21,10,20,16,8,93,80,60,30.59,30.35,3,0,5,0.00
2013-1-28,42,35,26,42,33,17,97,91,66,30.35,29.86,5,2,9,0.13
2013-1-29,58,44,35,54,42,33,98,95,87,30.05,29.69,5,2,9,0.61
2013-1-30,65,58,49,56,52,46,96,79,64,29.69,29.03,9,5,18,0.63
2013-1-31,50,29,21,47,21,12,93,72,48,29.75,29.04,10,6,20,0.06
2013-2-1,24,19,17,16,12,8,87,74,56,30.22,29.75,5,3,15,0.00
2013-2-2,20,18,14,17,13,6,92,83,70,30.21,29.99,5,2,12,0.00
2013-2-3,27,19,8,18,14,6,93,82,57,30.00,29.82,3,0,6,0.00
2013-2-4,22,18,13,14,11,8,84,76,62,30.01,29.90,4,2,8,0.00
2013-2-5,30,22,15,23,16,11,91,77,55,29.97,29.86,4,1,9,0.00
2013-2-6,28,25,18,24,17,12,87,73,55,30.38,29.90,5,2,8,0.00
2013-2-7,32,25,17,21,18,13,86,74,59,30.39,30.07,4,1,9,0.00
2013-2-8,32,26,17,31,23,14,95,89,78,30.17,29.78,3,1,5,0.00
2013-2-9,23,18,11,17,14,9,94,87,77,30.45,30.17,1,0,2,0.00
2013-2-10,41,24,3,29,17,1,93,76,52,30.43,29.93,3,0,5,0.08
2013-2-11,50,39,32,42,32,25,93,78,53,29.94,29.58,9,5,20,0.34
2013-2-12,34,32,31,30,27,23,92,81,74,29.99,29.75,7,4,15,0.00
2013-2-13,38,31,22,25,23,20,91,73,56,29.92,29.74,3,0,5,0.00
2013-2-14,24,23,21,22,21,19,93,91,89,29.86,29.83,0,0,0,0.00
2013-2-15,33,26,20,23,18,14,81,70,62,30.09,29.98,5,2,9,0.00
2013-2-16,31,24,19,21,15,9,88,69,48,30.09,29.93,3,1,5,0.00
2013-2-17,20,16,12,18,10,4,90,76,61,30.26,29.93,5,2,10,0.00
2013-2-18,36,23,8,23,12,5,91,64,39,30.31,29.88,3,1,5,0.00
2013-2-19,44,34,23,37,27,18,92,77,50,29.88,29.55,8,4,16,0.46
2013-2-20,24,21,19,18,14,11,86,73,61,30.14,29.79,7,5,13,0.00
2013-2-21,24,20,16,16,13,10,84,75,63,30.44,30.11,4,2,12,0.00
2013-2-22,36,28,20,31,23,16,91,81,64,30.41,29.99,4,1,9,0.03
2013-2-23,38,34,30,32,28,24,85,81,74,29.99,29.89,4,2,9,0.01
2013-2-24,32,30,28,27,25,24,89,81,75,30.11,29.87,4,2,12,0.00
2013-2-25,36,31,24,29,26,22,93,82,73,30.25,30.11,3,1,4,0.00
2013-2-26,44,34,22,33,27,21,94,78,49,30.24,29.70,6,2,12,0.88
2013-2-27,35,34,32,34,32,31,97,94,90,29.72,29.58,5,1,7,0.50
2013-2-28,34,33,31,32,32,30,97,95,90,29.78,29.56,3,1,7,0.26
2013-3-1,31,28,24,30,24,20,93,84,77,29.99,29.78,4,2,8,0.00
2013-3-2,26,24,20,21,19,17,87,82,76,29.99,29.93,4,1,8,0.00
2013-3-3,26,23,21,21,19,16,91,84,74,29.97,29.90,3,1,6,0.00
2013-3-4,31,25,18,23,19,15,88,78,64,30.10,29.96,4,2,9,0.02
2013-3-5,36,28,20,24,21,16,88,77,60,30.13,29.96,4,1,9,0.05
2013-3-6,42,33,25,32,27,21,89,81,61,30.17,29.95,5,2,11,0.00
2013-3-7,39,34,30,33,30,26,94,85,67,30.30,30.16,4,1,6,0.04
2013-3-8,43,35,28,31,27,22,95,76,49,30.43,30.30,6,2,12,0.03
2013-3-9,49,36,25,34,29,24,96,78,47,30.44,30.18,2,0,5,0.00
2013-3-10,67,54,36,33,28,23,71,39,26,30.18,29.92,6,3,9,0.00
2013-3-11,65,57,46,44,32,29,91,40,28,29.93,29.60,8,4,13,0.11
2013-3-12,46,37,33,43,33,28,94,85,76,29.92,29.69,6,3,11,0.04
2013-3-13,37,31,23,30,26,13,91,80,61,30.02,29.85,6,3,15,0.03
2013-3-14,23,22,22,14,13,13,70,68,66,30.05,30.03,5,2,7,0.00
2013-3-15,34,31,28,25,22,20,73,70,66,29.91,29.85,2,0,3,0.01
2013-3-16,29,27,19,22,19,16,88,72,63,30.02,29.84,4,2,10,0.00
2013-3-17,32,26,19,21,16,9,89,68,46,30.35,30.01,4,1,7,0.00
2013-3-18,36,28,19,32,19,8,91,70,47,30.35,29.67,6,2,10,0.02
2013-3-19,37,31,24,34,26,19,94,81,63,29.86,29.65,7,4,15,0.16
2013-3-20,34,27,21,23,20,16,90,76,53,29.87,29.82,6,2,10,0.00
2013-3-21,29,25,19,26,19,13,89,78,57,29.86,29.74,5,2,12,0.00
2013-3-22,32,28,25,27,24,21,90,85,79,29.98,29.79,5,3,10,0.01
2013-3-23,41,33,27,27,24,20,86,71,48,30.05,29.95,3,1,8,0.02
2013-3-24,40,31,21,28,23,19,94,72,51,30.06,29.72,5,2,11,0.00
2013-3-25,42,35,31,30,26,24,82,70,56,29.76,29.61,5,2,9,0.00
2013-3-26,47,38,32,34,30,27,88,75,53,29.98,29.76,4,1,13,0.00
2013-3-27,43,34,31,33,30,26,95,86,68,30.09,29.97,6,2,11,0.15
2013-3-28,42,35,32,37,33,31,96,91,80,30.24,30.08,4,1,8,0.30
2013-3-29,48,39,32,35,32,30,93,79,53,30.23,30.17,5,2,8,0.00
2013-3-30,51,39,26,34,27,22,96,65,34,30.24,30.02,6,1,12,0.01
2013-3-31,59,46,38,42,31,23,94,59,32,30.02,29.60,6,2,13,0.03
2013-4-1,46,35,26,41,25,13,92,68,40,29.99,29.58,7,3,11,0.03
2013-4-2,35,29,23,23,18,14,79,63,49,30.16,29.99,6,3,15,0.00
2013-4-3,38,30,25,22,17,13,78,60,36,30.43,30.16,4,2,11,0.00
2013-4-4,52,36,24,24,18,9,83,52,21,30.38,29.93,5,2,9,0.00
2013-4-5,46,38,29,29,22,13,72,54,38,30.19,29.90,6,2,9,0.00
2013-4-6,52,37,19,27,19,12,89,52,20,30.33,30.00,4,1,6,0.00
2013-4-7,64,53,43,46,34,18,72,49,27,30.04,29.70,9,4,17,0.00
2013-4-8,63,47,31,50,38,28,94,71,42,30.10,29.74,7,1,13,0.27
2013-4-9,62,50,44,49,44,40,96,80,47,30.12,29.78,5,2,11,1.15
2013-4-10,48,44,39,46,42,37,97,95,92,30.03,29.84,6,3,10,0.71
2013-4-11,39,35,32,37,32,30,94,91,78,30.11,29.89,6,3,12,0.60
2013-4-12,50,38,33,49,36,31,98,94,85,29.88,29.49,8,4,15,0.74
2013-4-13,44,40,37,36,35,33,89,83,71,29.95,29.78,7,4,15,0.00
2013-4-14,49,41,35,34,30,26,87,66,45,30.17,29.95,5,2,8,0.00
2013-4-15,74,57,37,48,40,29,76,57,38,30.13,29.96,7,2,14,0.00
2013-4-16,63,56,45,56,49,40,95,80,58,30.22,29.93,9,4,15,0.17
2013-4-17,58,47,34,39,35,32,95,64,43,30.36,30.16,5,2,10,0.00
2013-4-18,84,65,46,60,50,32,69,59,44,30.18,29.63,10,5,18,0.00
2013-4-19,72,56,41,59,46,31,90,71,59,29.75,29.33,11,6,19,0.10
2013-4-20,41,37,31,33,27,20,88,67,47,30.43,29.74,7,4,15,0.01
2013-4-21,47,36,22,27,23,18,91,60,42,30.69,30.43,4,2,9,0.00
2013-4-22,64,48,29,34,26,20,76,44,23,30.58,30.30,4,2,8,0.00
2013-4-23,69,56,38,37,32,24,73,42,24,30.30,29.89,3,1,5,0.00
2013-4-24,62,53,37,54,42,33,94,70,36,30.05,29.61,7,4,13,0.56
2013-4-25,56,43,35,39,34,26,94,74,35,30.33,30.05,6,2,12,0.04
2013-4-26,55,45,34,39,31,20,97,62,27,30.49,30.33,5,1,9,0.01
2013-4-27,72,55,34,41,31,23,77,44,21,30.43,30.18,4,1,7,0.00
2013-4-28,74,59,43,49,41,34,76,53,24,30.18,29.95,6,3,10,0.08
2013-4-29,66,59,52,54,50,46,86,72,63,30.01,29.92,5,2,8,0.09
2013-4-30,76,65,57,55,52,50,88,66,45,30.17,30.01,4,2,9,0.00
2013-5-1,82,68,58,57,50,38,73,55,34,30.29,30.17,5,2,8,0.00
2013-5-2,81,68,51,44,38,30,62,35,17,30.38,30.21,4,2,8,0.00
2013-5-3,81,68,52,48,42,37,63,40,25,30.26,30.14,4,1,6,0.00
2013-5-4,76,66,53,46,41,33,65,42,22,30.24,30.09,6,2,11,0.00
2013-5-5,79,64,45,47,44,38,89,52,25,30.18,30.03,5,1,9,0.00
2013-5-6,78,62,43,45,37,28,84,46,18,30.13,29.99,5,1,9,0.00
2013-5-7,80,66,50,54,50,41,90,58,35,30.09,29.96,5,1,12,0.00
2013-5-8,71,62,53,61,56,50,94,80,59,30.01,29.91,2,0,3,0.16
2013-5-9,68,59,56,60,56,51,97,88,70,29.95,29.87,3,1,5,0.10
2013-5-10,76,60,48,62,55,47,97,85,57,29.94,29.69,5,1,10,0.52
2013-5-11,60,50,47,58,47,43,96,89,77,29.78,29.66,6,3,12,0.10
2013-5-12,51,43,37,47,36,30,92,78,59,29.97,29.69,7,3,13,0.12
2013-5-13,47,40,34,37,33,30,85,74,62,30.16,29.97,5,2,12,0.00
2013-5-14,58,48,33,40,33,26,96,60,29,30.16,29.90,4,1,6,0.00
2013-5-15,78,64,50,58,48,40,78,59,38,29.91,29.54,8,2,18,0.00
2013-5-16,67,57,52,49,44,34,81,64,30,30.01,29.72,3,1,6,0.00
2013-5-17,67,55,40,44,41,37,93,61,40,30.21,30.01,3,1,6,0.00
2013-5-18,75,62,48,49,45,40,78,56,38,30.22,30.10,4,1,7,0.00
2013-5-19,85,70,54,63,56,46,90,64,44,30.11,29.94,4,1,6,0.00
2013-5-20,88,76,62,66,63,58,87,65,43,30.01,29.82,6,1,8,0.00
2013-5-21,89,75,65,70,64,58,82,68,50,29.91,29.72,4,2,9,0.00
2013-5-22,86,75,64,66,63,59,91,66,45,29.77,29.61,5,2,10,0.00
2013-5-23,74,63,44,63,57,42,93,82,66,29.92,29.66,5,3,11,0.29
2013-5-24,52,44,39,42,36,35,94,77,54,30.25,29.92,5,3,11,0.16
2013-5-25,59,50,37,39,35,32,92,60,40,30.28,30.19,5,2,10,0.00
2013-5-26,65,54,42,45,37,29,91,56,28,30.25,30.18,5,2,9,0.00
2013-5-27,74,59,40,46,38,29,97,55,21,30.28,30.11,3,1,5,0.00
2013-5-28,66,59,52,63,54,38,98,83,48,30.14,29.89,5,0,6,1.71
2013-5-29,80,70,64,64,62,58,97,78,57,30.00,29.86,6,3,18,0.47
2013-5-30,85,74,62,67,63,58,89,69,53,30.10,30.00,5,2,11,0.00
2013-5-31,89,79,66,66,64,61,90,63,42,30.04,29.90,5,2,14,0.00
2013-6-1,87,73,66,69,66,62,95,79,54,29.93,29.74,5,2,13,0.62
2013-6-2,73,68,56,65,61,50,97,81,63,29.89,29.66,7,3,16,1.45
2013-6-3,62,54,46,50,46,41,87,73,58,30.04,29.90,6,2,12,0.00
2013-6-4,69,58,44,47,42,34,87,59,28,30.17,30.04,3,1,6,0.00
2013-6-5,71,58,47,50,45,40,91,64,41,30.20,30.05,4,1,7,0.00
2013-6-6,60,56,53,59,52,40,97,85,55,30.05,29.81,3,1,11,1.31
2013-6-7,61,57,54,57,56,53,97,93,83,29.86,29.80,3,1,5,0.00
2013-6-8,64,59,56,58,56,53,98,91,76,30.08,29.83,4,1,7,0.02
2013-6-9,79,66,54,59,55,52,96,70,44,30.19,30.07,3,1,4,0.00
2013-6-10,76,67,62,67,62,56,96,86,71,30.07,29.68,5,1,9,0.15
2013-6-11,74,66,60,63,61,56,97,84,61,29.84,29.64,5,2,9,0.14
2013-6-12,71,65,58,57,55,54,89,72,55,29.86,29.73,0,0,1,0.00
2013-6-13,70,63,58,62,58,56,96,87,62,29.78,29.48,6,2,13,1.04
2013-6-14,75,63,53,61,57,52,98,83,54,29.99,29.77,3,1,8,0.00
2013-6-15,71,63,50,57,52,45,98,71,40,30.06,29.93,5,1,10,0.00
2013-6-16,75,68,63,66,61,55,90,78,70,29.94,29.76,5,2,9,0.15
2013-6-17,80,70,61,63,60,56,95,73,51,29.91,29.80,5,2,7,0.03
2013-6-18,70,64,55,57,52,46,92,68,42,30.02,29.86,4,2,8,0.00
2013-6-19,69,60,49,50,45,40,96,62,36,30.18,30.02,4,1,8,0.00
2013-6-20,80,64,45,51,46,32,95,56,18,30.24,30.18,4,1,6,0.00
2013-6-21,85,70,51,55,49,43,92,52,28,30.25,30.14,3,1,6,0.00
2013-6-22,88,76,64,69,63,51,78,64,50,30.14,29.97,6,2,15,0.00
2013-6-23,88,78,69,70,67,65,90,71,49,30.04,29.96,6,2,13,0.22
2013-6-24,85,77,72,69,66,64,81,69,52,30.03,29.91,6,2,11,0.00
2013-6-25,79,74,70,69,66,63,88,77,64,29.93,29.78,5,2,12,0.07
2013-6-26,80,73,68,69,66,64,92,79,62,29.82,29.76,6,2,10,0.00
2013-6-27,81,71,65,72,66,63,95,87,71,29.78,29.62,3,0,4,1.24
2013-6-28,74,66,62,68,64,61,97,94,79,29.62,29.48,2,0,3,1.33
2013-6-29,76,67,61,66,62,59,97,85,65,29.69,29.47,3,1,6,0.07
2013-6-30,80,70,60,66,62,58,96,77,59,29.90,29.69,4,1,7,0.00
2013-7-1,71,65,60,63,61,58,94,87,74,30.05,29.90,4,2,12,0.22
2013-7-2,77,67,58,68,62,57,95,85,70,30.07,30.00,3,1,6,0.00
2013-7-3,92,77,64,74,68,63,98,77,49,30.12,30.05,3,1,6,0.19
2013-7-4,86,75,70,71,69,68,96,83,58,30.16,30.08,3,1,7,0.07
2013-7-5,84,75,70,73,69,67,95,82,62,30.11,30.04,5,1,10,0.13
2013-7-6,87,77,68,72,69,66,95,76,55,30.13,30.00,4,1,9,0.00
2013-7-7,82,75,71,71,69,66,96,81,63,30.03,29.92,6,2,12,0.05
2013-7-8,83,75,70,72,69,66,94,81,60,30.04,29.95,5,2,11,0.00
2013-7-9,82,74,70,72,70,68,94,86,71,30.01,29.87,3,1,7,0.03
2013-7-10,79,72,70,73,68,61,97,87,70,29.87,29.69,7,2,16,0.00
2013-7-11,78,70,62,62,58,55,81,67,46,29.99,29.82,3,1,8,0.00
2013-7-13,75,73,71,70,69,68,93,88,83,30.22,30.19,0,0,1,0.01
2013-7-14,93,80,66,74,70,65,97,73,48,30.28,30.20,3,1,7,0.01
2013-7-15,93,82,74,75,71,59,91,71,40,30.27,30.21,3,0,7,0.00
2013-7-16,93,83,73,75,71,65,95,71,40,30.26,30.17,3,1,6,0.00
2013-7-17,90,81,77,80,76,72,98,85,63,30.21,30.06,6,2,12,0.03
2013-7-18,92,82,76,78,75,72,96,80,58,30.09,29.92,5,2,12,0.00
2013-7-19,90,82,68,76,73,65,97,74,56,29.92,29.69,7,3,26,1.35
2013-7-20,84,74,66,72,68,62,98,83,55,29.87,29.69,4,1,10,0.37
2013-7-21,80,72,65,65,62,58,85,69,52,29.97,29.87,3,0,6,0.00
2013-7-22,81,71,59,68,63,58,96,78,58,29.97,29.75,2,0,8,0.00
2013-7-23,82,72,63,70,66,56,97,82,59,29.75,29.60,5,1,14,0.40
2013-7-24,68,62,53,57,51,48,91,69,49,30.03,29.72,5,2,12,0.00
2013-7-25,76,64,49,57,52,48,97,69,42,30.11,30.03,2,0,8,0.00
2013-7-26,82,66,49,60,54,48,97,67,34,30.11,29.98,2,0,7,0.00
2013-7-27,79,69,59,66,61,55,95,76,53,29.98,29.78,4,1,10,0.57
2013-7-28,68,66,64,65,62,55,94,86,65,29.88,29.76,3,1,6,0.01
2013-7-29,67,64,61,58,57,56,85,79,73,30.14,30.08,3,1,6,0.33
2013-7-30,76,66,55,61,58,53,96,75,53,30.19,30.13,3,1,10,0.00
2013-7-31,82,70,58,64,58,51,94,69,36,30.14,29.90,3,0,7,0.00
2013-8-1,77,70,65,68,63,60,95,79,61,29.90,29.75,4,1,15,0.41
2013-8-2,79,68,57,66,61,56,98,78,50,29.87,29.80,6,2,23,0.20
2013-8-3,77,68,59,63,59,50,97,73,41,29.94,29.81,4,1,11,0.00
2013-8-4,74,65,55,59,54,48,91,69,47,30.07,29.94,4,1,12,0.00
2013-8-5,75,63,50,57,51,47,95,69,41,30.11,30.00,3,1,8,0.00
2013-8-6,82,69,55,61,56,51,90,64,36,30.03,29.93,2,0,6,0.00
2013-8-7,85,75,67,70,64,60,88,70,56,29.95,29.82,5,2,13,0.00
2013-8-8,84,75,65,72,69,64,97,81,62,29.93,29.85,4,1,9,1.12
2013-8-9,80,70,64,69,64,59,96,82,56,29.93,29.84,4,1,13,0.24
2013-8-10,76,68,58,65,56,45,94,69,41,30.08,29.92,4,1,9,0.00
2013-8-11,78,66,51,58,54,50,98,68,45,30.13,30.02,3,0,8,0.00
2013-8-12,78,70,60,65,61,57,91,73,53,30.04,29.83,5,1,11,0.00
2013-8-13,71,66,56,66,58,48,97,78,53,29.89,29.73,4,1,13,0.37
2013-8-14,72,61,52,53,49,43,90,66,38,30.09,29.88,5,2,13,0.00
2013-8-15,66,60,51,53,50,46,85,71,62,30.11,30.09,1,0,4,0.00
2013-8-16,77,63,52,61,55,49,93,76,48,30.19,30.11,3,1,7,0.00
2013-8-17,84,69,53,61,55,50,97,66,34,30.27,30.19,2,0,5,0.00
2013-8-18,84,70,55,63,57,52,93,67,41,30.23,30.09,3,0,9,0.00
2013-8-19,82,72,60,66,62,58,96,74,46,30.10,30.02,4,1,9,0.00
2013-8-20,82,72,63,69,64,59,92,77,57,30.12,30.04,5,1,10,0.00
2013-8-21,85,74,62,68,64,59,91,72,50,30.15,30.00,4,1,8,0.00
2013-8-22,82,73,63,72,66,58,93,80,67,30.01,29.90,5,1,12,0.44
2013-8-23,77,66,54,60,56,51,98,73,44,30.19,29.99,4,1,9,0.00
2013-8-24,80,65,50,58,53,49,98,69,36,30.34,30.19,2,0,4,0.00
2013-8-25,83,70,54,65,56,51,93,66,37,30.32,30.12,5,1,12,0.00
2013-8-26,79,73,70,70,67,62,96,84,69,30.15,29.92,5,2,13,0.90
2013-8-27,84,75,68,74,71,67,98,89,68,29.93,29.84,4,1,8,0.27
2013-8-28,84,75,68,73,70,66,97,86,66,29.94,29.82,3,0,7,0.32
2013-8-29,87,74,63,72,67,63,98,80,53,30.03,29.94,3,0,5,0.00
2013-8-30,83,74,65,71,68,64,97,82,61,29.99,29.72,4,1,8,0.01
2013-8-31,82,75,69,71,69,67,93,84,68,29.82,29.68,4,1,8,0.09
2013-9-1,84,74,66,73,68,65,97,84,63,29.81,29.72,2,0,4,0.16
2013-9-2,82,72,64,72,66,56,98,84,65,29.79,29.67,4,1,12,0.01
2013-9-3,69,63,59,60,57,54,87,80,71,29.96,29.78,3,1,10,0.00
2013-9-4,76,68,58,65,58,48,89,73,40,30.00,29.94,6,2,13,0.00
2013-9-5,67,60,48,62,49,39,97,71,39,30.24,29.97,4,1,11,0.00
2013-9-6,70,57,42,52,46,39,97,68,37,30.29,30.09,4,1,8,0.00
2013-9-7,68,63,57,64,57,52,93,81,65,30.10,29.87,4,1,11,0.37
2013-9-8,68,63,50,66,54,46,95,74,49,30.10,29.85,5,1,10,0.00
2013-9-9,75,61,45,65,53,43,94,75,55,30.13,29.93,4,1,10,0.00
2013-9-10,87,78,70,74,70,65,88,76,61,29.99,29.89,7,3,15,0.03
2013-9-11,88,80,69,74,72,65,91,75,58,30.01,29.88,6,2,13,0.15
2013-9-12,75,69,61,69,65,55,93,87,77,29.93,29.72,4,1,9,0.18
2013-9-13,61,54,50,56,50,44,92,86,76,30.05,29.77,4,1,8,0.06
2013-9-14,64,55,48,51,44,26,87,68,24,30.14,30.03,3,1,8,0.00
2013-9-15,67,58,48,55,49,40,94,72,56,30.15,30.04,4,1,11,0.12
2013-9-16,55,50,38,54,48,37,98,92,76,30.38,30.07,4,1,9,0.02
2013-9-17,68,50,34,47,41,33,98,76,41,30.49,30.28,2,0,6,0.00
2013-9-18,74,57,40,52,46,38,97,71,37,30.28,30.09,3,0,7,0.00
2013-9-19,77,62,48,60,55,47,97,78,54,30.12,29.99,3,1,8,0.00
2013-9-20,82,70,56,68,62,55,97,78,61,30.00,29.71,5,2,9,0.00
2013-9-21,75,63,54,67,60,50,97,92,74,29.75,29.60,5,1,11,3.29
2013-9-22,58,52,48,50,45,41,93,76,60,30.05,29.75,4,1,9,0.00
2013-9-23,61,52,41,44,42,40,95,71,46,30.16,30.04,2,1,6,0.00
2013-9-24,67,51,38,52,44,37,98,80,48,30.17,30.01,2,0,5,0.00
2013-9-25,72,54,38,53,45,38,98,77,42,30.03,29.94,3,0,6,0.00
2013-9-26,72,55,39,56,48,38,98,79,49,30.15,30.00,3,0,7,0.00
2013-9-27,70,58,46,57,52,45,98,83,59,30.25,30.15,2,0,6,0.00
2013-9-28,77,62,46,57,52,45,98,73,45,30.27,30.14,3,0,8,0.01
2013-9-29,77,62,47,58,53,45,96,73,49,30.14,29.97,4,1,9,0.02
2013-9-30,75,66,58,63,58,54,93,78,63,29.99,29.93,4,1,9,0.00
2013-10-1,73,66,60,63,61,58,95,84,67,30.01,29.90,5,1,12,0.00
2013-10-2,75,67,54,64,62,53,97,85,65,30.08,29.91,5,1,9,0.00
2013-10-3,73,60,45,58,49,44,98,73,36,30.12,30.00,1,0,4,0.08
2013-10-4,71,66,60,69,65,58,98,94,89,30.04,29.97,3,0,7,1.10
2013-10-5,66,61,59,63,60,57,98,94,88,30.08,29.98,2,0,6,0.49
2013-10-6,83,69,59,71,64,57,99,86,64,29.98,29.65,4,0,9,0.49
2013-10-7,76,59,48,65,53,46,95,82,64,30.06,29.63,6,2,14,0.78
2013-10-8,66,52,40,52,46,40,98,81,49,30.34,30.06,2,0,4,0.01
2013-10-9,58,44,38,47,42,37,98,91,66,30.39,30.33,1,0,2,0.00
2013-10-11,61,53,47,53,49,46,96,87,76,30.13,30.11,0,0,1,0.00
2013-10-12,78,58,40,56,45,40,98,68,28,30.18,30.08,2,0,5,0.01
2013-10-13,69,63,55,62,54,41,96,74,48,30.25,30.14,4,1,7,0.43
2013-10-14,66,56,44,60,50,43,97,82,53,30.35,30.25,3,0,7,0.11
2013-10-15,70,56,43,57,51,42,98,83,59,30.29,29.91,2,0,6,0.00
2013-10-16,70,63,54,61,56,48,94,81,64,29.91,29.73,5,2,12,0.70
2013-10-17,62,55,49,52,50,46,96,82,64,29.87,29.68,2,0,7,0.54
2013-10-18,62,54,46,50,45,38,91,74,45,29.90,29.73,5,2,12,0.03
2013-10-19,59,52,43,50,46,40,95,80,62,29.88,29.64,4,1,10,0.39
2013-10-20,55,47,42,46,41,37,96,80,63,29.97,29.77,4,1,12,0.00
2013-10-21,66,55,45,49,43,39,93,65,40,29.96,29.78,6,2,21,0.18
2013-10-22,50,45,40,49,35,27,95,70,49,29.86,29.76,5,2,17,0.38
2013-10-23,46,41,35,39,35,30,95,81,64,29.84,29.72,5,0,10,0.03
2013-10-24,50,40,34,36,33,29,90,78,49,30.05,29.82,4,1,12,0.00
2013-10-25,52,42,35,39,35,30,95,79,58,30.21,30.05,3,0,8,0.01
2013-10-26,46,43,38,41,36,32,91,77,59,30.13,29.77,9,4,20,0.56
2013-10-27,50,42,37,39,35,31,93,77,56,30.05,29.83,3,1,9,0.00
2013-10-28,48,42,26,40,32,22,90,67,44,30.40,30.04,4,1,11,0.00
2013-10-29,50,39,25,35,29,23,94,70,42,30.48,30.30,1,0,3,0.00
2013-10-30,61,46,36,42,38,34,96,76,43,30.31,30.08,0,0,3,0.01
2013-10-31,67,57,43,60,53,39,97,86,72,30.08,29.33,8,3,19,1.26
2013-11-1,64,55,46,59,50,44,93,81,71,29.66,29.13,11,5,23,0.33
2013-11-2,49,44,37,47,41,35,95,90,82,30.03,29.60,5,1,10,0.17
2013-11-3,39,33,22,35,25,21,95,75,52,30.56,30.03,3,1,9,0.00
2013-11-4,43,32,20,26,22,19,96,70,43,30.66,30.44,3,0,8,0.00
2013-11-5,61,47,30,38,30,20,77,53,40,30.47,30.31,4,1,9,0.00
2013-11-6,67,57,48,56,44,30,95,64,47,30.31,29.80,7,3,15,0.50
2013-11-7,55,43,38,53,36,29,94,77,62,30.02,29.79,4,2,9,0.17
2013-11-8,42,38,33,33,30,28,89,74,58,30.25,29.98,4,1,10,0.00
2013-11-9,52,44,34,46,33,27,88,65,44,30.24,29.79,8,2,14,0.07
2013-11-10,49,44,38,42,34,30,82,70,61,30.20,29.79,7,3,18,0.01
2013-11-11,45,38,29,40,33,24,94,82,65,30.20,29.94,7,2,20,0.43
2013-11-12,34,29,24,25,21,16,85,71,53,30.44,30.15,4,2,12,0.00
2013-11-13,40,33,24,29,24,18,86,70,57,30.46,30.12,9,3,18,0.00
2013-11-14,48,44,38,29,26,23,66,51,38,30.13,30.02,9,5,22,0.00
2013-11-15,52,47,42,39,30,26,74,51,40,30.11,30.05,6,3,15,0.00
2013-11-16,60,51,39,44,38,30,76,61,50,30.23,29.98,4,1,9,0.00
2013-11-17,64,59,52,57,52,44,90,77,68,29.98,29.32,9,5,17,0.30
2013-11-18,56,45,36,48,36,28,81,70,60,29.96,29.37,10,6,38,0.00
2013-11-19,39,34,23,28,24,20,91,69,55,30.48,29.96,4,2,12,0.00
2013-11-20,43,30,18,26,21,17,95,72,44,30.58,30.42,3,1,9,0.00
2013-11-21,45,39,24,39,28,14,92,66,39,30.43,30.24,5,1,10,0.05
2013-11-22,48,42,31,47,40,26,97,92,78,30.24,30.01,4,1,8,0.32
2013-11-23,34,27,19,27,19,9,86,72,48,30.27,30.06,6,3,22,0.00
2013-11-24,25,20,14,14,11,7,86,70,47,30.48,30.27,4,2,11,0.00
2013-11-25,36,28,18,30,16,10,88,62,36,30.43,30.11,7,4,17,0.00
2013-11-26,36,33,32,31,30,28,96,87,77,30.14,29.83,7,2,16,0.03
2013-11-27,32,29,23,31,26,18,97,88,72,29.98,29.70,0,0,0,0.00
2013-11-28,30,24,18,22,18,15,92,80,56,30.44,29.98,0,0,0,0.00
2013-11-29,31,24,17,22,17,12,93,78,57,30.75,30.44,2,0,7,0.16
2013-11-30,37,28,17,26,18,11,81,69,54,30.73,30.20,5,2,14,0.01
2013-12-1,41,37,34,33,30,26,78,74,64,30.20,29.95,3,1,8,0.15
2013-12-2,39,36,26,35,32,24,96,87,75,29.95,29.88,1,0,4,0.00
2013-12-3,41,31,21,30,26,19,97,83,59,30.01,29.93,2,0,6,0.00
2013-12-4,55,42,33,43,37,29,94,82,62,30.01,29.83,2,0,4,0.03
2013-12-5,61,51,38,53,44,32,87,78,71,30.04,29.71,7,4,15,0.00
2013-12-6,38,33,29,33,26,21,94,77,65,30.29,30.03,3,1,9,0.06
2013-12-7,30,26,20,23,17,11,82,69,51,30.61,30.28,4,1,12,0.00
2013-12-8,28,23,14,22,16,10,88,73,55,30.61,30.18,4,1,8,0.00
2013-12-9,38,33,27,35,29,22,95,86,75,30.18,29.87,8,3,17,0.04
2013-12-10,30,24,20,24,15,10,92,69,59,30.11,29.92,7,3,16,0.00
2013-12-11,22,18,14,13,10,7,75,70,62,30.34,30.11,6,3,15,0.00
2013-12-12,20,16,11,19,9,2,93,75,60,30.38,30.11,6,3,16,0.00
2013-12-13,26,19,14,21,14,9,89,81,71,30.43,30.09,7,3,15,0.00
2013-12-14,16,14,13,14,11,6,91,86,73,30.44,29.76,4,2,11,0.00
2013-12-15,19,18,16,18,16,14,93,92,91,29.76,29.67,3,1,5,0.00
2013-12-16,13,10,6,10,7,4,91,89,86,30.20,30.17,0,0,0,0.00
2013-12-17,28,20,6,26,17,3,94,87,76,30.17,29.93,5,1,11,0.00
2013-12-18,32,28,24,25,22,20,90,81,70,30.08,29.95,6,2,14,0.00
2013-12-19,42,35,27,34,28,20,93,78,68,30.04,29.90,6,2,13,0.16
2013-12-20,43,40,34,42,38,33,98,96,92,30.00,29.77,3,1,10,0.75
2013-12-21,52,41,32,51,40,30,98,96,91,29.87,29.71,5,2,12,1.17
2013-12-22,41,35,31,40,34,30,98,95,90,29.98,29.59,5,2,12,1.99
2013-12-23,38,33,24,36,29,18,93,84,72,30.29,29.95,5,2,14,0.00
2013-12-24,26,20,8,22,15,4,93,84,75,30.54,30.22,4,1,9,0.00
2013-12-25,27,15,3,19,9,0,92,79,66,30.56,30.22,4,0,9,0.00
2013-12-26,32,27,20,28,22,14,94,80,70,30.31,30.07,5,2,14,0.00
2013-12-27,36,29,20,30,25,14,91,84,76,30.31,30.08,6,2,12,0.00
2013-12-28,43,39,36,35,33,29,90,79,66,30.12,29.93,6,3,15,0.16
2013-12-29,46,41,27,38,31,21,89,68,48,29.94,29.63,5,3,14,0.00
2013-12-30,27,19,16,21,12,8,88,74,61,30.24,29.81,4,1,12,0.00
2013-12-31,22,18,13,20,11,5,92,77,61,30.27,29.98,7,2,16,0.00
2014-1-1,22,16,11,13,9,4,89,74,55,30.44,30.27,5,1,11,0.00
2014-1-2,14,9,4,11,6,1,89,87,84,30.32,30.03,8,4,15,0.00